Jinan Yaoqiang International

Airport
ICAO code: 
ZSJN
Summary
ICAO Region: 
APAC
Territory: 
Location: 
Jinan, Shandong,
Coordinates: 
Aerial View: 
36° 51' 25.999" N, 117° 12' 58" E
Metar
Observation
ZSJN 030528Z 29005MPS 240V310 CAVOK 13/M08 Q1024 NOSIG
Station
JINAN YAOQIANG
Date/Time
2021-12-03 05:28:00
Wind direction
290°
Lowest cloud amount
clouds and visibility OK
Temperature
13°C
Dew point
-8°C
Humidity
22%
QNH
1024 hPa
Weather condition
n/a

Jinan Yaoqiang International Airport (IATA: TNA) is the airport serving Jinan, the capital city of Shandong Province, China. The airport is located approximately 33 km northeast of the city center and immediately to the north of the town of Yaoqiang.

Runways

Designator Length Width Surface Rops
1/19 3601 45 CON Yes/Yes
Airport map: 
Aerial View: 

SKYbrary Partners:

Safety knowledge contributed by: